Time;durP1;ratioP1;P1;durP2;ratioP2;P2;SDS_P1;SDS_P2;PMS_P1;PMS_P2;Temp;Humidity;BMP_temperature;BMP_pressure;BME280_temperature;BME280_humidity;BME280_pressure;Samples;Min_cycle;Max_cycle;Signal;HPM_P1;HPM_P2
2021/01/01 00:00:14;;;;;;;7.83;5.03;;;;;;;1.49;86.96;97445.84;1797966;79;20889;-71
2021/01/01 00:02:42;;;;;;;6.95;4.92;;;;;;;1.48;86.95;97454.70;1797200;79;21008;-70
2021/01/01 00:05:16;;;;;;;6.05;5.35;;;;;;;1.49;87.01;97449.34;1798022;79;20933;-70
2021/01/01 00:07:44;;;;;;;6.28;5.00;;;;;;;1.51;87.07;97452.76;1797791;79;21374;-71
2021/01/01 00:10:13;;;;;;;5.47;4.72;;;;;;;1.54;87.08;97453.09;1797864;79;20973;-71
2021/01/01 00:12:41;;;;;;;6.17;5.20;;;;;;;1.54;87.02;97455.27;1797939;79;21380;-71
2021/01/01 00:15:11;;;;;;;6.40;4.97;;;;;;;1.54;86.96;97450.45;1797953;79;21414;-71
2021/01/01 00:17:39;;;;;;;5.15;4.15;;;;;;;1.55;86.81;97453.49;1798033;79;20921;-71
2021/01/01 00:20:09;;;;;;;6.33;5.42;;;;;;;1.55;86.70;97459.63;1797910;79;21383;-71
2021/01/01 00:22:39;;;;;;;7.47;4.37;;;;;;;1.55;86.63;97453.49;1797661;79;20948;-72
2021/01/01 00:25:07;;;;;;;6.35;5.72;;;;;;;1.55;86.72;97465.41;1797875;79;20917;-70
2021/01/01 00:27:36;;;;;;;6.97;5.17;;;;;;;1.53;86.71;97469.45;1797909;79;20995;-71
2021/01/01 00:30:06;;;;;;;4.78;4.25;;;;;;;1.54;86.81;97471.14;1797994;79;21422;-71
2021/01/01 00:32:33;;;;;;;5.17;4.47;;;;;;;1.57;86.87;97468.83;1797876;79;21363;-71
2021/01/01 00:35:02;;;;;;;5.65;5.05;;;;;;;1.56;86.82;97472.39;1797927;79;21374;-71
2021/01/01 00:37:36;;;;;;;5.65;4.90;;;;;;;1.54;86.71;97475.11;1797866;79;20910;-71
2021/01/01 00:40:06;;;;;;;6.00;5.40;;;;;;;1.54;86.61;97475.11;1797985;79;20976;-71
2021/01/01 00:42:36;;;;;;;6.03;4.58;;;;;;;1.56;86.57;97471.06;1797937;79;20956;-71
2021/01/01 00:45:08;;;;;;;6.47;5.03;;;;;;;1.56;86.58;97472.39;1797896;79;21422;-71
2021/01/01 00:47:37;;;;;;;5.62;5.12;;;;;;;1.55;86.48;97472.02;1797972;79;20874;-71
2021/01/01 00:50:05;;;;;;;4.80;4.30;;;;;;;1.53;86.52;97470.77;1797880;79;20972;-71
2021/01/01 00:52:36;;;;;;;5.70;4.65;;;;;;;1.52;86.54;97465.55;1797801;79;21004;-72
2021/01/01 00:55:06;;;;;;;6.08;5.15;;;;;;;1.51;86.52;97469.11;1797988;79;21394;-72
2021/01/01 00:57:34;;;;;;;6.58;5.78;;;;;;;1.50;86.58;97466.06;1813652;79;21315;-72
2021/01/01 01:00:05;;;;;;;5.40;4.90;;;;;;;1.48;86.69;97470.58;1815455;79;21035;-72
2021/01/01 01:02:33;;;;;;;6.40;5.37;;;;;;;1.49;86.82;97469.66;1815457;78;20960;-70
2021/01/01 01:05:02;;;;;;;6.83;5.55;;;;;;;1.50;86.92;97472.68;1815458;79;20963;-70
2021/01/01 01:07:29;;;;;;;5.22;4.72;;;;;;;1.53;87.06;97476.50;1815442;79;20896;-70
2021/01/01 01:09:57;;;;;;;5.92;4.83;;;;;;;1.54;87.12;97475.59;1815490;78;21270;-70
2021/01/01 01:12:24;;;;;;;4.03;3.62;;;;;;;1.56;87.07;97484.30;1815432;79;20976;-70
2021/01/01 01:14:52;;;;;;;4.17;3.77;;;;;;;1.55;87.09;97475.98;1815578;79;20972;-70
2021/01/01 01:17:19;;;;;;;5.47;4.97;;;;;;;1.58;86.96;97483.78;1815336;79;20865;-70
2021/01/01 01:19:46;;;;;;;5.25;4.78;;;;;;;1.59;86.84;97489.45;1815569;78;20897;-70
2021/01/01 01:22:14;;;;;;;5.92;4.42;;;;;;;1.60;86.73;97491.17;1815578;79;21190;-70
2021/01/01 01:24:42;;;;;;;5.90;5.30;;;;;;;1.59;86.69;97487.69;1815404;79;20924;-70
2021/01/01 01:27:10;;;;;;;5.75;5.25;;;;;;;1.58;86.55;97483.78;1815374;79;20900;-70
2021/01/01 01:29:37;;;;;;;4.37;3.95;;;;;;;1.59;86.50;97490.77;1815433;79;20909;-70
2021/01/01 01:32:05;;;;;;;4.58;4.12;;;;;;;1.59;86.37;97494.74;1815506;79;20971;-70
2021/01/01 01:34:32;;;;;;;4.42;3.90;;;;;;;1.57;86.28;97488.20;1815431;79;21430;-70
2021/01/01 01:37:02;;;;;;;4.85;4.35;;;;;;;1.57;86.28;97486.03;1815390;79;20940;-70
2021/01/01 01:39:31;;;;;;;8.03;5.28;;;;;;;1.58;86.33;97491.72;1815446;79;20912;-70
2021/01/01 01:41:59;;;;;;;6.83;6.22;;;;;;;1.57;86.22;97486.03;1815428;79;20920;-70
2021/01/01 01:44:26;;;;;;;5.35;4.72;;;;;;;1.56;86.11;97479.01;1815486;79;20984;-71
2021/01/01 01:46:54;;;;;;;5.42;4.92;;;;;;;1.56;86.01;97489.59;1815428;79;22106;-71
2021/01/01 01:49:21;;;;;;;5.45;4.95;;;;;;;1.55;85.89;97485.25;1815388;78;21023;-71
2021/01/01 01:51:49;;;;;;;6.17;5.53;;;;;;;1.54;85.78;97478.23;1815458;79;20924;-73
2021/01/01 01:54:17;;;;;;;6.78;5.90;;;;;;;1.54;85.79;97484.84;1815314;78;20896;-71
2021/01/01 01:56:44;;;;;;;5.60;5.05;;;;;;;1.52;85.80;97482.75;1815335;79;20964;-72
2021/01/01 01:59:13;;;;;;;5.40;4.80;;;;;;;1.51;85.79;97487.16;1786299;79;21359;-70
2021/01/01 02:01:41;;;;;;;4.92;4.05;;;;;;;1.49;85.78;97483.74;1815498;79;21429;-70
2021/01/01 02:04:09;;;;;;;4.03;3.62;;;;;;;1.50;85.62;97487.23;1815390;78;20908;-70
2021/01/01 02:06:36;;;;;;;4.58;4.05;;;;;;;1.49;85.56;97489.52;1815484;78;20975;-70
2021/01/01 02:09:05;;;;;;;5.65;4.58;;;;;;;1.47;85.51;97488.27;1815435;79;20983;-70
2021/01/01 02:11:32;;;;;;;4.30;3.90;;;;;;;1.46;85.59;97494.95;1815444;79;21369;-70
2021/01/01 02:14:00;;;;;;;4.22;3.65;;;;;;;1.46;85.64;97496.27;1815274;79;20912;-70
2021/01/01 02:16:29;;;;;;;6.00;4.33;;;;;;;1.44;85.53;97488.41;1815403;78;20909;-69
2021/01/01 02:18:56;;;;;;;4.78;4.37;;;;;;;1.43;85.55;97488.88;1815394;79;21358;-69
2021/01/01 02:21:23;;;;;;;6.05;5.45;;;;;;;1.43;85.63;97492.84;1815401;79;20963;-70
2021/01/01 02:23:51;;;;;;;6.30;5.80;;;;;;;1.43;85.75;97491.53;1815494;79;22111;-70
2021/01/01 02:26:19;;;;;;;5.87;5.37;;;;;;;1.43;85.80;97491.53;1815361;79;20928;-70
2021/01/01 02:28:46;;;;;;;4.80;4.40;;;;;;;1.43;85.83;97492.84;1815420;79;20936;-70
2021/01/01 02:31:15;;;;;;;4.10;3.70;;;;;;;1.46;85.85;97490.98;1815384;79;20948;-71
2021/01/01 02:33:43;;;;;;;4.00;3.65;;;;;;;1.47;85.85;97492.67;1815338;79;20932;-69
2021/01/01 02:36:10;;;;;;;4.67;4.10;;;;;;;1.47;85.83;97482.97;1815425;79;21318;-70
2021/01/01 02:38:42;;;;;;;4.20;3.80;;;;;;;1.48;85.81;97493.08;1815346;79;20892;-70
2021/01/01 02:41:11;;;;;;;5.03;4.53;;;;;;;1.49;85.88;97493.48;1815430;79;20877;-70
2021/01/01 02:43:38;;;;;;;5.60;4.80;;;;;;;1.48;85.84;97490.43;1815299;79;22179;-70
2021/01/01 02:46:06;;;;;;;4.47;4.03;;;;;;;1.49;85.78;97488.19;1815400;78;20912;-70
2021/01/01 02:48:34;;;;;;;4.97;4.33;;;;;;;1.50;85.74;97485.47;1815385;79;21328;-70
2021/01/01 02:51:01;;;;;;;5.28;4.80;;;;;;;1.52;85.85;97489.37;1815331;78;20944;-70
2021/01/01 02:53:30;;;;;;;5.83;5.22;;;;;;;1.53;85.89;97488.41;1815531;79;20889;-70
2021/01/01 02:55:57;;;;;;;6.33;5.72;;;;;;;1.52;85.82;97493.34;1815372;79;20869;-70
2021/01/01 02:58:24;;;;;;;6.85;6.25;;;;;;;1.52;85.76;97489.37;1815328;79;20948;-70
2021/01/01 03:00:52;;;;;;;6.33;5.72;;;;;;;1.53;85.71;97495.91;1815346;79;21365;-71
2021/01/01 03:03:19;;;;;;;7.35;6.65;;;;;;;1.55;85.65;97485.25;1815358;79;20945;-70
2021/01/01 03:05:47;;;;;;;8.18;7.47;;;;;;;1.54;85.63;97488.82;1815389;79;20916;-70
2021/01/01 03:08:15;;;;;;;9.88;9.03;;;;;;;1.53;85.66;97490.62;1815579;79;21512;-70
2021/01/01 03:10:43;;;;;;;10.08;9.25;;;;;;;1.54;85.60;97490.14;1815564;79;20988;-70
2021/01/01 03:13:11;;;;;;;11.60;10.53;;;;;;;1.54;85.49;97490.98;1815599;79;22589;-70
2021/01/01 03:15:39;;;;;;;12.68;11.68;;;;;;;1.54;85.45;97494.96;1815464;79;20928;-70
2021/01/01 03:18:07;;;;;;;11.03;10.13;;;;;;;1.55;85.43;97493.19;1815513;79;20927;-70
2021/01/01 03:20:35;;;;;;;11.55;10.65;;;;;;;1.54;85.42;97490.14;1815489;79;20983;-70
2021/01/01 03:23:02;;;;;;;10.00;9.20;;;;;;;1.55;85.42;97487.90;1815591;79;21019;-70
2021/01/01 03:25:30;;;;;;;9.05;8.25;;;;;;;1.53;85.35;97489.73;1815542;79;21366;-70
2021/01/01 03:27:57;;;;;;;9.55;8.75;;;;;;;1.51;85.26;97495.10;1815501;79;20936;-70
2021/01/01 03:30:25;;;;;;;9.73;8.93;;;;;;;1.51;85.19;97491.61;1815505;78;20980;-70
2021/01/01 03:32:53;;;;;;;9.15;8.40;;;;;;;1.48;85.30;97489.11;1815532;79;20975;-70
2021/01/01 03:35:21;;;;;;;9.85;9.03;;;;;;;1.47;85.37;97493.55;1815507;79;20968;-71
2021/01/01 03:37:48;;;;;;;8.38;7.67;;;;;;;1.46;85.42;97501.56;1815556;79;21184;-71
2021/01/01 03:40:16;;;;;;;7.75;7.05;;;;;;;1.43;85.54;97498.14;1815453;79;20995;-71
2021/01/01 03:42:44;;;;;;;7.45;6.30;;;;;;;1.44;85.64;97505.12;1815582;79;20980;-70
2021/01/01 03:45:14;;;;;;;7.78;7.08;;;;;;;1.46;85.72;97501.56;1815468;79;20940;-71
2021/01/01 03:47:41;;;;;;;6.92;6.33;;;;;;;1.46;85.82;97493.63;1815519;79;21031;-70
2021/01/01 03:50:09;;;;;;;6.42;5.83;;;;;;;1.44;85.80;97504.28;1815616;79;21141;-70
2021/01/01 03:52:37;;;;;;;6.10;5.60;;;;;;;1.43;85.86;97492.84;1815523;79;20928;-70
2021/01/01 03:55:07;;;;;;;6.45;5.15;;;;;;;1.43;85.82;97497.26;1815455;79;21078;-70
2021/01/01 03:57:34;;;;;;;6.40;5.80;;;;;;;1.40;85.83;97494.31;1810308;79;20972;-70
2021/01/01 04:00:08;;;;;;;6.50;5.90;;;;;;;1.40;85.88;97491.67;1804427;79;21007;-70
2021/01/01 04:02:41;;;;;;;6.03;5.42;;;;;;;1.40;86.01;97500.05;1804394;79;23589;-70
2021/01/01 04:05:10;;;;;;;6.15;4.92;;;;;;;1.38;86.04;97494.83;1804287;79;20920;-70
2021/01/01 04:07:37;;;;;;;5.80;5.10;;;;;;;1.39;86.17;97496.55;1804491;79;21469;-71
2021/01/01 04:10:06;;;;;;;5.97;5.42;;;;;;;1.39;86.18;97499.20;1804392;79;20972;-71
2021/01/01 04:12:34;;;;;;;6.17;5.58;;;;;;;1.37;86.24;97498.42;1804540;79;21470;-71
2021/01/01 04:15:03;;;;;;;5.70;5.20;;;;;;;1.38;86.27;97497.47;1804315;79;21472;-70
2021/01/01 04:17:32;;;;;;;6.95;4.95;;;;;;;1.37;86.30;97501.07;1804324;79;21038;-70
2021/01/01 04:19:59;;;;;;;5.03;4.53;;;;;;;1.39;86.16;97502.33;1804408;79;21430;-70
2021/01/01 04:22:27;;;;;;;5.85;5.25;;;;;;;1.40;86.19;97510.63;1804387;79;20866;-70
2021/01/01 04:24:55;;;;;;;6.35;5.75;;;;;;;1.37;86.23;97510.33;1804344;79;20964;-70
2021/01/01 04:27:22;;;;;;;7.33;6.58;;;;;;;1.38;86.23;97510.70;1804358;79;21346;-70
2021/01/01 04:29:50;;;;;;;8.30;6.08;;;;;;;1.38;86.31;97507.20;1804385;79;20932;-70
2021/01/01 04:32:17;;;;;;;5.83;5.15;;;;;;;1.38;86.45;97514.67;1804425;79;20920;-70
2021/01/01 04:34:45;;;;;;;5.37;4.87;;;;;;;1.39;86.37;97514.23;1804268;79;20964;-70
2021/01/01 04:37:13;;;;;;;6.47;5.42;;;;;;;1.39;86.34;97524.34;1804332;79;20956;-70
2021/01/01 04:39:40;;;;;;;6.08;4.97;;;;;;;1.40;86.46;97523.42;1804529;79;22265;-70
2021/01/01 04:42:10;;;;;;;5.30;4.80;;;;;;;1.41;86.51;97526.44;1804357;79;20932;-71
2021/01/01 04:44:37;;;;;;;5.03;4.42;;;;;;;1.41;86.56;97525.59;1804280;79;20937;-70
2021/01/01 04:47:06;;;;;;;4.83;4.35;;;;;;;1.41;86.56;97533.05;1804401;79;20976;-70
2021/01/01 04:49:35;;;;;;;5.97;5.37;;;;;;;1.42;86.56;97528.16;1804442;79;20957;-70
2021/01/01 04:52:03;;;;;;;5.97;5.37;;;;;;;1.43;86.54;97528.58;1804403;79;21149;-70
2021/01/01 04:54:33;;;;;;;6.58;5.97;;;;;;;1.43;86.66;97532.54;1804247;79;20917;-71
2021/01/01 04:57:01;;;;;;;6.03;5.45;;;;;;;1.44;86.73;97542.17;1803817;78;20932;-70
2021/01/01 04:59:28;;;;;;;5.28;4.62;;;;;;;1.46;86.59;97541.26;1797895;79;20933;-70
2021/01/01 05:01:55;;;;;;;5.20;4.70;;;;;;;1.49;86.62;97550.38;1797886;79;21009;-70
2021/01/01 05:04:23;;;;;;;5.95;5.28;;;;;;;1.51;86.66;97551.16;1797778;79;23597;-70
2021/01/01 05:06:51;;;;;;;6.30;5.70;;;;;;;1.53;86.67;97554.58;1797825;79;20921;-70
2021/01/01 05:09:18;;;;;;;5.37;4.87;;;;;;;1.52;86.62;97555.05;1797927;79;20874;-70
2021/01/01 05:11:47;;;;;;;4.90;4.50;;;;;;;1.55;86.57;97562.01;1797837;79;20905;-70
2021/01/01 05:14:14;;;;;;;4.92;4.42;;;;;;;1.55;86.52;97564.18;1797769;79;20984;-70
2021/01/01 05:16:45;;;;;;;6.03;5.53;;;;;;;1.57;86.40;97568.08;1797870;79;21207;-70
2021/01/01 05:19:13;;;;;;;5.58;5.03;;;;;;;1.56;86.43;97569.87;1776094;79;21000;-70
2021/01/01 05:21:41;;;;;;;5.90;5.05;;;;;;;1.57;86.44;97572.05;1797901;79;20909;-70
2021/01/01 05:24:16;;;;;;;6.70;4.92;;;;;;;1.58;86.41;97579.07;1797773;79;20917;-71
2021/01/01 05:26:48;;;;;;;4.95;4.40;;;;;;;1.59;86.37;97572.38;1797980;79;21355;-71
2021/01/01 05:29:20;;;;;;;5.00;4.40;;;;;;;1.59;86.30;97582.97;1797929;79;21459;-71
2021/01/01 05:31:48;;;;;;;;;;;;;;;1.59;86.29;97588.27;1800574;79;21343;-70
2021/01/01 05:34:18;;;;;;;4.58;4.15;;;;;;;1.59;86.17;97583.41;1797816;79;20422;-71
2021/01/01 05:36:46;;;;;;;4.62;4.17;;;;;;;1.57;86.04;97589.25;1797862;79;21390;-69
2021/01/01 05:39:20;;;;;;;4.58;3.77;;;;;;;1.57;85.97;97593.22;1798002;79;20977;-70
2021/01/01 05:41:51;;;;;;;3.95;3.47;;;;;;;1.57;85.84;97598.52;1798033;79;26645;-70
2021/01/01 05:44:31;;;;;;;4.65;4.17;;;;;;;1.54;85.69;97596.86;1797810;79;20909;-70
2021/01/01 05:47:09;;;;;;;5.05;4.47;;;;;;;1.52;85.64;97599.20;1797867;79;20877;-70
2021/01/01 05:49:41;;;;;;;3.77;3.37;;;;;;;1.50;85.72;97602.36;1797932;79;21355;-70
2021/01/01 05:52:25;;;;;;;5.25;4.37;;;;;;;1.51;85.78;97601.44;1797794;79;20921;-70
2021/01/01 05:55:03;;;;;;;4.78;4.00;;;;;;;1.50;85.89;97602.36;1797830;79;21189;-71
2021/01/01 05:57:38;;;;;;;4.70;4.22;;;;;;;1.50;85.97;97608.98;1798661;77;20942;-69
2021/01/01 06:00:08;;;;;;;6.72;4.78;;;;;;;1.51;85.94;97620.81;1804368;79;21362;-70
2021/01/01 06:02:42;;;;;;;5.15;4.65;;;;;;;1.51;85.96;97618.64;1804238;79;20866;-70
2021/01/01 06:05:13;;;;;;;4.67;4.15;;;;;;;1.51;85.96;97620.81;1803784;79;21027;-69
2021/01/01 06:07:42;;;;;;;4.25;3.85;;;;;;;1.51;85.97;97623.94;1804086;79;21354;-69
2021/01/01 06:10:11;;;;;;;4.83;4.03;;;;;;;1.51;86.04;97619.97;1804074;79;20976;-70
2021/01/01 06:12:39;;;;;;;5.67;4.25;;;;;;;1.50;86.09;97621.77;1803621;79;20920;-70
2021/01/01 06:15:09;;;;;;;4.50;3.80;;;;;;;1.53;86.15;97626.04;1804225;79;20999;-71
2021/01/01 06:17:40;;;;;;;5.87;3.83;;;;;;;1.54;86.18;97633.91;1804332;79;20972;-70
2021/01/01 06:20:09;;;;;;;4.55;4.08;;;;;;;1.53;86.17;97634.86;1802850;79;22307;-71
2021/01/01 06:22:42;;;;;;;4.62;3.58;;;;;;;1.53;86.25;97635.30;1804197;79;20928;-70
2021/01/01 06:25:11;;;;;;;3.98;3.25;;;;;;;1.55;86.23;97641.41;1803836;79;20929;-71
2021/01/01 06:27:39;;;;;;;4.30;3.90;;;;;;;1.52;86.14;97638.42;1803997;78;20917;-71
2021/01/01 06:30:10;;;;;;;4.87;3.95;;;;;;;1.51;86.17;97635.84;1803966;79;21000;-71
2021/01/01 06:32:38;;;;;;;3.73;3.27;;;;;;;1.51;86.20;97638.49;1804578;79;21781;-71
2021/01/01 06:35:21;;;;;;;3.55;3.20;;;;;;;1.49;86.22;97645.17;1804132;79;21563;-70
2021/01/01 06:37:54;;;;;;;4.50;3.20;;;;;;;1.49;86.15;97645.17;1804429;79;20881;-70
2021/01/01 06:40:27;;;;;;;3.25;2.55;;;;;;;1.49;86.10;97650.95;1804312;79;20928;-71
2021/01/01 06:43:06;;;;;;;4.47;3.95;;;;;;;1.48;86.03;97655.83;1804374;79;21413;-71
2021/01/01 06:45:42;;;;;;;5.75;3.37;;;;;;;1.46;86.09;97657.70;1804062;79;21317;-71
2021/01/01 06:48:22;;;;;;;4.53;3.65;;;;;;;1.42;86.04;97652.53;1804086;79;21354;-71
2021/01/01 06:50:51;;;;;;;3.85;3.20;;;;;;;1.41;85.92;97657.42;1804280;79;20889;-72
2021/01/01 06:53:30;;;;;;;4.28;3.58;;;;;;;1.40;85.95;97662.34;1803855;79;37482;-71
2021/01/01 06:56:11;;;;;;;4.80;4.40;;;;;;;1.39;86.04;97661.94;1804015;79;20960;-70
2021/01/01 06:58:41;;;;;;;6.15;4.12;;;;;;;1.39;86.14;97663.73;1799912;78;21796;-69
2021/01/01 07:01:17;;;;;;;5.72;4.47;;;;;;;1.36;86.15;97660.75;1797737;79;20941;-70
2021/01/01 07:03:45;;;;;;;5.00;4.53;;;;;;;1.36;86.21;97667.36;1797718;79;21533;-71
2021/01/01 07:06:22;;;;;;;5.10;4.60;;;;;;;1.37;86.20;97673.06;1797598;79;20980;-70
2021/01/01 07:08:51;;;;;;;4.80;4.08;;;;;;;1.38;86.11;97676.08;1797755;79;21521;-71
2021/01/01 07:11:31;;;;;;;6.17;4.00;;;;;;;1.36;86.19;97675.30;1797560;79;21790;-71
2021/01/01 07:14:05;;;;;;;3.87;3.55;;;;;;;1.37;86.21;97682.32;1797677;79;20885;-73
2021/01/01 07:16:34;;;;;;;;;;;;;;;1.36;86.22;97675.30;1800348;79;21000;-71
2021/01/01 07:19:03;;;;;;;4.28;3.98;;;;;;;1.39;86.22;97685.75;1797684;79;20462;-71
2021/01/01 07:21:31;;;;;;;5.25;4.75;;;;;;;1.39;86.30;97692.37;1797814;79;20920;-71
2021/01/01 07:23:59;;;;;;;4.62;4.22;;;;;;;1.40;86.34;97696.74;1797720;79;21040;-72
2021/01/01 07:26:30;;;;;;;4.62;4.00;;;;;;;1.41;86.29;97697.59;1797458;79;20939;-73
2021/01/01 07:29:00;;;;;;;5.47;4.60;;;;;;;1.43;86.17;97701.02;1797721;79;20921;-72
2021/01/01 07:31:28;;;;;;;4.45;4.05;;;;;;;1.44;86.14;97706.25;1797808;79;20933;-72
2021/01/01 07:34:04;;;;;;;6.17;4.70;;;;;;;1.46;86.22;97710.62;1797654;79;20905;-71
2021/01/01 07:36:32;;;;;;;6.55;5.90;;;;;;;1.48;86.17;97706.11;1777088;79;22361;-71
2021/01/01 07:39:03;;;;;;;6.35;4.75;;;;;;;1.49;86.12;97705.20;1797758;79;20921;-71
2021/01/01 07:41:31;;;;;;;6.28;5.50;;;;;;;1.49;85.99;97710.02;1797596;79;20930;-71
2021/01/01 07:43:58;;;;;;;7.67;6.33;;;;;;;1.50;85.87;97715.72;1797655;79;20925;-71
2021/01/01 07:46:29;;;;;;;6.87;6.22;;;;;;;1.51;85.80;97711.27;1797791;79;20941;-72
2021/01/01 07:48:59;;;;;;;6.83;6.08;;;;;;;1.50;85.86;97718.37;1797687;79;21356;-71
2021/01/01 07:51:28;;;;;;;7.83;7.03;;;;;;;1.51;85.91;97724.51;1797597;79;20976;-72
2021/01/01 07:53:58;;;;;;;7.25;6.55;;;;;;;1.52;86.03;97727.56;1795066;79;20917;-71
2021/01/01 07:56:26;;;;;;;6.85;6.25;;;;;;;1.54;86.08;97727.02;1797700;79;21008;-73
2021/01/01 07:58:57;;;;;;;6.87;5.80;;;;;;;1.58;86.08;97729.95;1800702;77;21438;-72
2021/01/01 08:01:24;;;;;;;6.83;6.22;;;;;;;1.62;86.12;97736.80;1804369;79;21244;-72
2021/01/01 08:03:53;;;;;;;5.72;5.12;;;;;;;1.64;86.14;97737.63;1804090;79;20920;-73
2021/01/01 08:06:22;;;;;;;5.60;5.10;;;;;;;1.67;86.24;97737.48;1804486;79;21477;-73
2021/01/01 08:08:50;;;;;;;5.30;4.53;;;;;;;1.69;86.19;97736.94;1804491;79;21457;-74
2021/01/01 08:11:18;;;;;;;5.62;5.12;;;;;;;1.74;86.14;97742.89;1804258;79;20897;-72
2021/01/01 08:13:46;;;;;;;5.17;4.67;;;;;;;1.76;86.05;97742.34;1804416;79;22079;-72
2021/01/01 08:16:15;;;;;;;5.10;4.50;;;;;;;1.80;86.19;97747.91;1804097;79;21024;-72
2021/01/01 08:18:43;;;;;;;5.15;4.67;;;;;;;1.86;86.33;97749.88;1804362;79;21552;-71
2021/01/01 08:21:11;;;;;;;5.05;4.45;;;;;;;1.90;86.35;97760.75;1804296;79;20935;-72
2021/01/01 08:23:52;;;;;;;5.60;4.45;;;;;;;1.94;86.35;97766.28;1804471;79;20944;-72
2021/01/01 08:26:22;;;;;;;5.17;4.47;;;;;;;1.98;86.29;97758.61;1804296;79;22354;-73
2021/01/01 08:28:51;;;;;;;4.95;4.22;;;;;;;2.02;86.20;97762.86;1804301;79;20917;-72
2021/01/01 08:31:20;;;;;;;4.35;3.72;;;;;;;2.05;86.17;97764.05;1804458;79;21343;-73
2021/01/01 08:33:54;;;;;;;4.08;3.67;;;;;;;2.10;86.00;97769.98;1804225;79;20905;-74
2021/01/01 08:36:32;;;;;;;5.23;4.40;;;;;;;2.12;86.04;97773.41;1804579;79;20912;-72
2021/01/01 08:39:11;;;;;;;4.28;3.80;;;;;;;2.19;86.10;97774.46;1804409;79;21362;-72
2021/01/01 08:41:47;;;;;;;3.52;3.22;;;;;;;2.23;85.90;97770.76;1804392;79;21473;-73
2021/01/01 08:44:16;;;;;;;6.15;5.30;;;;;;;2.29;85.73;97781.08;1804412;79;20968;-73
2021/01/01 08:46:45;;;;;;;4.78;4.30;;;;;;;2.30;85.49;97779.69;1804220;79;21564;-73
2021/01/01 08:49:20;;;;;;;6.25;5.65;;;;;;;2.31;85.42;97776.56;1804257;79;20996;-72
2021/01/01 08:51:49;;;;;;;5.47;4.97;;;;;;;2.32;85.32;97775.64;1804419;79;21253;-73
2021/01/01 08:54:25;;;;;;;8.08;7.28;;;;;;;2.37;85.40;97781.58;1800431;79;21370;-73
2021/01/01 08:56:58;;;;;;;10.55;9.28;;;;;;;2.39;85.38;97777.06;1804298;79;21020;-73
2021/01/01 08:59:28;;;;;;;9.75;8.78;;;;;;;2.40;85.40;97778.79;1804314;78;20937;-72
2021/01/01 09:01:56;;;;;;;10.10;8.10;;;;;;;2.42;85.06;97779.56;1804153;79;20988;-72
2021/01/01 09:04:28;;;;;;;16.42;9.13;;;;;;;2.43;84.62;97783.95;1804347;79;21425;-73
2021/01/01 09:06:59;;;;;;;9.63;8.63;;;;;;;2.44;84.52;97783.00;1804321;79;21438;-72
2021/01/01 09:09:31;;;;;;;10.80;9.43;;;;;;;2.44;84.38;97788.30;1804272;79;20924;-72
2021/01/01 09:12:20;;;;;;;13.25;9.83;;;;;;;2.44;84.19;97796.25;1804374;79;20865;-72
2021/01/01 09:14:55;;;;;;;10.98;9.00;;;;;;;2.45;84.17;97797.98;1804499;79;20909;-73
2021/01/01 09:17:24;;;;;;;12.78;10.70;;;;;;;2.43;84.04;97794.55;1804271;79;21362;-73
2021/01/01 09:20:07;;;;;;;11.70;9.98;;;;;;;2.42;84.00;97799.92;1804354;79;21478;-72
2021/01/01 09:22:36;;;;;;;10.93;9.00;;;;;;;2.44;84.14;97806.00;1804667;79;21454;-73
2021/01/01 09:25:22;;;;;;;9.85;8.63;;;;;;;2.45;84.33;97805.08;1804183;79;21560;-73
2021/01/01 09:27:50;;;;;;;8.55;7.70;;;;;;;2.44;84.10;97801.55;1804348;79;21055;-73
2021/01/01 09:30:22;;;;;;;11.33;7.62;;;;;;;2.45;84.00;97803.28;1804347;79;21192;-73
2021/01/01 09:32:51;;;;;;;8.45;7.12;;;;;;;2.46;83.93;97804.13;1804191;79;20932;-73
2021/01/01 09:35:18;;;;;;;8.50;6.97;;;;;;;2.47;83.92;97809.36;1804083;79;20936;-74
2021/01/01 09:37:59;;;;;;;8.18;7.25;;;;;;;2.48;83.90;97800.48;1803997;79;20912;-74
2021/01/01 09:40:30;;;;;;;9.18;7.22;;;;;;;2.49;83.94;97798.24;1803872;79;20916;-73
2021/01/01 09:43:02;;;;;;;8.55;7.62;;;;;;;2.55;84.08;97800.20;1804388;79;21070;-73
2021/01/01 09:45:30;;;;;;;9.75;7.12;;;;;;;2.58;84.29;97808.88;1804209;79;20916;-73
2021/01/01 09:47:58;;;;;;;8.45;7.65;;;;;;;2.65;84.42;97810.77;1804288;79;20952;-73
2021/01/01 09:50:26;;;;;;;8.73;7.83;;;;;;;2.70;84.14;97808.30;1804285;79;20988;-73
2021/01/01 09:52:54;;;;;;;8.00;7.15;;;;;;;2.74;84.01;97811.66;1804351;79;21537;-73
2021/01/01 09:55:21;;;;;;;6.45;5.85;;;;;;;2.79;83.47;97812.33;1804183;79;21350;-73
2021/01/01 09:57:50;;;;;;;7.92;7.17;;;;;;;2.82;83.09;97810.86;1804285;79;20921;-73
2021/01/01 10:00:19;;;;;;;7.72;6.92;;;;;;;2.85;82.63;97818.67;1799316;79;20897;-73
2021/01/01 10:02:47;;;;;;;7.92;6.92;;;;;;;2.84;82.49;97812.11;1797593;79;20936;-73
2021/01/01 10:05:15;;;;;;;8.10;6.55;;;;;;;2.85;82.30;97810.72;1797804;79;20976;-73
2021/01/01 10:07:42;;;;;;;9.80;7.78;;;;;;;2.83;81.81;97809.91;1775936;79;21364;-74
2021/01/01 10:10:11;;;;;;;7.40;6.70;;;;;;;2.82;81.67;97810.86;1797790;79;21362;-73
2021/01/01 10:12:39;;;;;;;8.33;7.17;;;;;;;2.84;81.64;97811.63;1797115;79;21443;-73
2021/01/01 10:15:07;;;;;;;8.40;7.58;;;;;;;2.83;81.83;97811.23;1797787;79;21061;-73
2021/01/01 10:17:36;;;;;;;7.42;6.62;;;;;;;2.83;81.70;97805.92;1797785;79;20933;-73
2021/01/01 10:20:07;;;;;;;8.45;7.65;;;;;;;2.85;81.51;97816.46;1797900;79;22124;-73
2021/01/01 10:22:35;;;;;;;9.60;7.83;;;;;;;2.88;81.72;97805.70;1797751;79;20980;-72
2021/01/01 10:25:03;;;;;;;8.65;7.75;;;;;;;2.93;81.87;97811.64;1797890;79;21525;-73
2021/01/01 10:27:31;;;;;;;9.40;7.78;;;;;;;2.97;82.28;97801.77;1797914;79;20924;-72
2021/01/01 10:29:58;;;;;;;10.90;7.25;;;;;;;3.01;82.33;97806.86;1797819;79;20925;-72
2021/01/01 10:32:27;;;;;;;7.15;6.50;;;;;;;3.03;81.68;97806.30;1797766;79;21187;-74
2021/01/01 10:34:55;;;;;;;7.62;6.85;;;;;;;3.08;81.24;97808.73;1797771;79;20937;-73
2021/01/01 10:37:23;;;;;;;9.23;8.05;;;;;;;3.12;81.33;97804.98;1797930;79;21032;-74
2021/01/01 10:39:50;;;;;;;7.83;7.03;;;;;;;3.13;81.35;97811.17;1797845;79;20865;-78
